createdAt,value
2022-10-08T00:00:32.152Z,8.38
2022-10-08T00:01:29.027Z,8.34
2022-10-08T00:02:27.427Z,8.30
2022-10-08T00:03:27.087Z,8.22
2022-10-08T00:04:23.696Z,8.28
2022-10-08T00:05:20.415Z,8.33
2022-10-08T00:06:25.900Z,8.53
2022-10-08T00:07:22.549Z,8.26
2022-10-08T00:08:19.165Z,8.22
2022-10-08T00:09:15.737Z,8.27
2022-10-08T00:10:12.351Z,8.47
2022-10-08T00:11:21.777Z,8.47
2022-10-08T00:12:18.468Z,8.36
2022-10-08T00:13:15.028Z,8.59
2022-10-08T00:14:11.661Z,8.45
2022-10-08T00:15:08.745Z,8.39
2022-10-08T00:16:05.604Z,8.41
2022-10-08T00:17:02.255Z,8.23
2022-10-08T00:17:58.850Z,8.28
2022-10-08T00:18:59.092Z,8.35
2022-10-08T00:19:57.531Z,8.48
2022-10-08T00:21:04.918Z,8.66
2022-10-08T00:22:01.641Z,8.90
2022-10-08T00:22:58.319Z,9.38
2022-10-08T00:23:55.086Z,9.51
2022-10-08T00:24:53.504Z,9.04
2022-10-08T00:25:50.059Z,8.63
2022-10-08T00:26:46.719Z,8.86
2022-10-08T00:27:43.352Z,8.84
2022-10-08T00:28:45.234Z,8.82
2022-10-08T00:29:44.737Z,8.96
2022-10-08T00:30:41.704Z,8.95
2022-10-08T00:31:41.020Z,8.85
2022-10-08T00:32:37.703Z,8.62
2022-10-08T00:33:36.252Z,8.62
2022-10-08T00:34:33.083Z,8.86
2022-10-08T00:35:29.640Z,8.90
2022-10-08T00:36:28.906Z,9.37
2022-10-08T00:37:26.758Z,8.99
2022-10-08T00:38:23.334Z,9.07
2022-10-08T00:39:22.370Z,9.00
2022-10-08T00:40:18.951Z,9.39
2022-10-08T00:41:27.241Z,9.34
2022-10-08T00:42:24.786Z,8.86
2022-10-08T00:43:40.915Z,8.70
2022-10-08T00:44:47.284Z,8.60
2022-10-08T00:45:47.016Z,8.67
2022-10-08T00:46:49.360Z,8.65
2022-10-08T00:47:48.980Z,8.69
2022-10-08T00:48:46.280Z,8.54
2022-10-08T00:49:43.058Z,8.48
2022-10-08T00:50:39.884Z,8.57
2022-10-08T00:51:37.192Z,8.60
2022-10-08T00:52:36.215Z,8.61
2022-10-08T00:53:34.492Z,8.39
2022-10-08T00:54:32.601Z,8.33
2022-10-08T00:55:30.366Z,8.26
2022-10-08T00:56:27.288Z,8.13
2022-10-08T00:57:24.402Z,8.05
2022-10-08T00:58:23.058Z,8.16
2022-10-08T00:59:20.770Z,8.41
2022-10-08T01:00:21.323Z,8.39
2022-10-08T01:01:18.262Z,8.28
2022-10-08T01:02:15.215Z,8.28
2022-10-08T01:03:11.873Z,8.31
2022-10-08T01:04:09.788Z,8.21
2022-10-08T01:05:07.615Z,8.48
2022-10-08T01:06:25.553Z,8.62
2022-10-08T01:07:36.441Z,8.72
2022-10-08T01:08:45.023Z,8.80
2022-10-08T01:09:49.853Z,9.02
2022-10-08T01:10:58.681Z,8.82
2022-10-08T01:12:23.126Z,8.96
2022-10-08T01:13:30.348Z,8.88
2022-10-08T01:14:45.487Z,8.79
2022-10-08T01:15:54.981Z,9.04
2022-10-08T01:17:22.479Z,9.26
2022-10-08T01:18:32.538Z,9.33
2022-10-08T01:19:44.016Z,8.91
2022-10-08T01:20:52.518Z,8.60
2022-10-08T01:22:01.294Z,8.48
2022-10-08T01:22:57.819Z,8.71
2022-10-08T01:24:09.350Z,8.71
2022-10-08T01:25:30.496Z,8.71
2022-10-08T01:26:45.967Z,8.70
2022-10-08T01:27:46.203Z,8.90
2022-10-08T01:28:49.804Z,8.92
2022-10-08T01:29:48.959Z,8.58
2022-10-08T01:31:01.299Z,8.35
2022-10-08T01:32:09.777Z,8.29
2022-10-08T01:33:13.855Z,8.30
2022-10-08T01:34:27.041Z,8.21
2022-10-08T01:35:28.719Z,8.17
2022-10-08T01:36:28.863Z,8.04
2022-10-08T01:37:38.684Z,7.93
2022-10-08T01:38:42.117Z,7.97
2022-10-08T01:39:40.875Z,7.90
2022-10-08T01:40:41.521Z,7.91
2022-10-08T01:41:40.988Z,8.06
2022-10-08T01:42:41.067Z,8.08
2022-10-08T01:43:43.525Z,8.16
2022-10-08T01:44:49.540Z,7.93
2022-10-08T01:45:54.790Z,7.74
2022-10-08T01:46:56.980Z,8.07
2022-10-08T01:47:56.169Z,8.10
2022-10-08T01:48:56.578Z,8.17
2022-10-08T01:50:05.600Z,8.22
2022-10-08T01:51:13.997Z,8.30
2022-10-08T01:52:17.647Z,8.99
2022-10-08T01:53:17.867Z,9.20
2022-10-08T01:54:17.396Z,9.20
2022-10-08T01:55:21.867Z,8.85
2022-10-08T01:56:23.343Z,8.36
2022-10-08T01:57:21.225Z,8.53
2022-10-08T01:58:33.982Z,8.63
2022-10-08T01:59:37.129Z,8.63
2022-10-08T02:00:37.582Z,8.74
2022-10-08T02:01:56.391Z,8.83
2022-10-08T02:02:55.364Z,8.52
2022-10-08T02:04:10.947Z,8.36
2022-10-08T02:05:08.384Z,8.75
2022-10-08T02:06:07.033Z,8.17
2022-10-08T02:07:08.765Z,8.01
2022-10-08T02:08:05.473Z,8.21
2022-10-08T02:09:03.019Z,8.67
2022-10-08T02:10:07.723Z,9.06
2022-10-08T02:11:04.331Z,8.41
2022-10-08T02:12:01.713Z,8.26
2022-10-08T02:12:58.782Z,8.12
2022-10-08T02:13:55.888Z,8.12
2022-10-08T02:14:56.913Z,8.57
2022-10-08T02:15:58.926Z,8.60
2022-10-08T02:17:02.574Z,8.29
2022-10-08T02:18:18.300Z,8.11
2022-10-08T02:19:46.958Z,7.70
2022-10-08T02:21:14.688Z,7.60
2022-10-08T02:22:17.053Z,7.67
2022-10-08T02:23:21.523Z,7.56
2022-10-08T02:24:21.476Z,7.55
2022-10-08T02:25:44.112Z,7.64
2022-10-08T02:26:47.319Z,7.62
2022-10-08T02:28:05.392Z,7.93
2022-10-08T02:29:29.091Z,8.58
2022-10-08T02:30:30.709Z,8.02
2022-10-08T02:31:33.188Z,7.79
2022-10-08T02:32:35.640Z,7.77
2022-10-08T02:34:02.390Z,7.97
2022-10-08T02:35:07.767Z,7.54
2022-10-08T02:36:08.586Z,7.43
2022-10-08T02:37:13.171Z,7.69
2022-10-08T02:38:18.987Z,7.72
2022-10-08T02:39:16.812Z,7.75
2022-10-08T02:40:16.910Z,7.80
2022-10-08T02:41:18.886Z,7.82
2022-10-08T02:42:21.995Z,7.71
2022-10-08T02:43:25.337Z,7.66
2022-10-08T02:44:35.183Z,7.67
2022-10-08T02:45:43.595Z,7.64
2022-10-08T02:46:44.260Z,7.68
2022-10-08T02:47:43.425Z,7.76
2022-10-08T02:48:44.235Z,7.64
2022-10-08T02:49:45.215Z,7.79
2022-10-08T02:50:44.449Z,8.01
2022-10-08T02:51:45.493Z,7.97
2022-10-08T02:52:45.240Z,7.91
2022-10-08T02:53:42.578Z,7.75
2022-10-08T02:54:42.292Z,7.71
2022-10-08T02:55:54.841Z,7.88
2022-10-08T02:56:51.390Z,7.93
2022-10-08T02:58:00.942Z,7.97
2022-10-08T02:58:58.102Z,8.02
2022-10-08T02:59:55.710Z,7.86
2022-10-08T03:01:32.969Z,8.06
2022-10-08T03:02:37.555Z,8.27
2022-10-08T03:03:55.243Z,8.31
2022-10-08T03:04:59.418Z,8.28
2022-10-08T03:05:57.241Z,8.14
2022-10-08T03:06:55.091Z,8.20
2022-10-08T03:07:54.633Z,7.87
2022-10-08T03:08:52.629Z,7.80
2022-10-08T03:09:52.251Z,8.48
2022-10-08T03:10:49.922Z,8.87
2022-10-08T03:11:47.156Z,8.49
2022-10-08T03:12:43.985Z,8.24
2022-10-08T03:13:44.406Z,8.08
2022-10-08T03:14:43.726Z,8.36
2022-10-08T03:15:41.371Z,8.22
2022-10-08T03:16:41.087Z,8.14
2022-10-08T03:17:44.924Z,8.09
2022-10-08T03:18:42.499Z,7.96
2022-10-08T03:19:39.104Z,7.82
2022-10-08T03:20:44.994Z,7.65
2022-10-08T03:21:43.841Z,7.78
2022-10-08T03:22:40.670Z,7.80
2022-10-08T03:23:37.260Z,7.77
2022-10-08T03:24:35.504Z,7.96
2022-10-08T03:25:32.081Z,7.94
2022-10-08T03:26:28.666Z,7.71
2022-10-08T03:27:25.545Z,7.73
2022-10-08T03:28:22.132Z,7.80
2022-10-08T03:29:18.853Z,7.87
2022-10-08T03:30:15.534Z,8.09
2022-10-08T03:31:12.149Z,8.24
2022-10-08T03:32:08.909Z,8.36
2022-10-08T03:33:05.541Z,8.55
2022-10-08T03:34:02.128Z,8.46
2022-10-08T03:34:58.686Z,8.09
2022-10-08T03:35:55.269Z,7.78
2022-10-08T03:36:51.878Z,7.66
2022-10-08T03:37:48.455Z,7.69
2022-10-08T03:38:45.083Z,8.33
2022-10-08T03:39:43.175Z,8.29
2022-10-08T03:40:39.744Z,7.89
2022-10-08T03:41:36.683Z,7.99
2022-10-08T03:42:33.292Z,7.96
2022-10-08T03:43:33.884Z,8.45
2022-10-08T03:44:30.446Z,8.80
2022-10-08T03:45:26.989Z,8.68
2022-10-08T03:46:23.598Z,8.21
2022-10-08T03:47:20.387Z,8.14
2022-10-08T03:48:18.477Z,7.86
2022-10-08T03:49:15.196Z,7.77
2022-10-08T03:50:11.784Z,7.87
2022-10-08T03:51:12.644Z,7.64
2022-10-08T03:52:09.257Z,7.71
2022-10-08T03:53:05.803Z,7.66
2022-10-08T03:54:02.377Z,7.63
2022-10-08T03:54:58.976Z,7.46
2022-10-08T03:55:55.531Z,7.42
2022-10-08T03:56:52.068Z,7.55
2022-10-08T03:57:48.684Z,7.47
2022-10-08T03:58:45.839Z,7.43
2022-10-08T03:59:42.484Z,7.15
2022-10-08T04:00:39.339Z,7.24
2022-10-08T04:01:35.929Z,7.28
2022-10-08T04:02:32.721Z,7.30
2022-10-08T04:03:29.915Z,7.13
2022-10-08T04:04:26.480Z,7.08
2022-10-08T04:05:23.054Z,7.00
2022-10-08T04:06:20.211Z,6.93
2022-10-08T04:07:16.768Z,6.87
2022-10-08T04:08:13.353Z,6.94
2022-10-08T04:09:10.858Z,6.85
2022-10-08T04:10:08.244Z,6.85
2022-10-08T04:11:07.150Z,6.76
2022-10-08T04:12:03.940Z,6.66
2022-10-08T04:13:00.505Z,6.69
2022-10-08T04:13:57.068Z,6.44
2022-10-08T04:14:53.666Z,6.87
2022-10-08T04:15:50.939Z,6.95
2022-10-08T04:16:48.267Z,6.82
2022-10-08T04:17:44.819Z,6.90
2022-10-08T04:18:42.369Z,7.11
2022-10-08T04:19:38.916Z,7.46
2022-10-08T04:20:35.490Z,7.53
2022-10-08T04:21:32.097Z,7.51
2022-10-08T04:22:28.631Z,7.23
2022-10-08T04:23:25.546Z,7.47
2022-10-08T04:24:22.151Z,7.53
2022-10-08T04:25:18.712Z,7.43
2022-10-08T04:26:15.570Z,7.25
2022-10-08T04:27:12.133Z,7.24
2022-10-08T04:28:08.719Z,7.20
2022-10-08T04:29:05.435Z,7.24
2022-10-08T04:30:01.982Z,7.21
2022-10-08T04:31:04.953Z,7.42
2022-10-08T04:32:01.553Z,7.15
2022-10-08T04:32:58.736Z,7.22
2022-10-08T04:33:55.290Z,7.34
2022-10-08T04:34:51.833Z,7.25
2022-10-08T04:35:48.445Z,7.46
2022-10-08T04:36:44.992Z,7.44
2022-10-08T04:37:41.608Z,7.71
2022-10-08T04:38:38.305Z,7.70
2022-10-08T04:39:34.932Z,7.58
2022-10-08T04:40:31.528Z,7.57
2022-10-08T04:41:28.114Z,7.47
2022-10-08T04:42:24.677Z,7.69
2022-10-08T04:43:22.197Z,7.96
2022-10-08T04:44:18.798Z,7.96
2022-10-08T04:45:15.663Z,7.72
2022-10-08T04:46:15.073Z,7.86
2022-10-08T04:47:11.700Z,7.82
2022-10-08T04:48:08.300Z,8.06
2022-10-08T04:49:04.866Z,7.98
2022-10-08T04:50:01.487Z,7.86
2022-10-08T04:51:00.785Z,7.82
2022-10-08T04:51:57.348Z,7.70
2022-10-08T04:52:53.957Z,7.75
2022-10-08T04:53:51.256Z,7.68
2022-10-08T04:54:47.928Z,7.43
2022-10-08T04:55:44.561Z,7.65
2022-10-08T04:56:41.128Z,7.72
2022-10-08T04:57:38.144Z,7.68
2022-10-08T04:58:34.753Z,7.75
2022-10-08T04:59:31.322Z,7.87
2022-10-08T05:00:27.955Z,7.67
2022-10-08T05:01:25.723Z,7.57
2022-10-08T05:02:22.505Z,7.53
2022-10-08T05:03:19.195Z,7.31
2022-10-08T05:04:15.893Z,7.40
2022-10-08T05:05:12.491Z,7.45
2022-10-08T05:06:10.104Z,7.38
2022-10-08T05:07:06.678Z,7.59
2022-10-08T05:08:05.340Z,7.42
2022-10-08T05:09:05.502Z,7.32
2022-10-08T05:10:02.060Z,7.18
2022-10-08T05:10:58.640Z,7.15
2022-10-08T05:11:55.265Z,7.13
2022-10-08T05:12:51.831Z,7.04
2022-10-08T05:13:55.970Z,6.97
2022-10-08T05:14:52.546Z,6.93
2022-10-08T05:15:49.373Z,6.85
2022-10-08T05:16:45.973Z,6.72
2022-10-08T05:17:42.530Z,6.83
2022-10-08T05:18:41.058Z,6.59
2022-10-08T05:19:37.673Z,6.73
2022-10-08T05:20:36.551Z,7.05
2022-10-08T05:21:33.248Z,6.56
2022-10-08T05:22:29.982Z,6.38
2022-10-08T05:23:26.533Z,6.34
2022-10-08T05:24:23.211Z,6.09
2022-10-08T05:25:19.766Z,6.59
2022-10-08T05:26:17.666Z,7.04
2022-10-08T05:27:14.284Z,7.05
2022-10-08T05:28:10.898Z,6.93
2022-10-08T05:29:07.672Z,6.81
2022-10-08T05:30:05.203Z,6.92
2022-10-08T05:31:02.117Z,7.09
2022-10-08T05:31:58.742Z,7.42
2022-10-08T05:32:55.305Z,7.69
2022-10-08T05:33:51.998Z,7.69
2022-10-08T05:34:48.585Z,7.68
2022-10-08T05:35:45.264Z,7.62
2022-10-08T05:36:41.958Z,7.77
2022-10-08T05:37:38.543Z,7.87
2022-10-08T05:38:35.708Z,7.96
2022-10-08T05:39:32.262Z,7.85
2022-10-08T05:40:29.689Z,7.85
2022-10-08T05:41:28.388Z,7.95
2022-10-08T05:42:24.929Z,7.98
2022-10-08T05:43:21.476Z,8.06
2022-10-08T05:44:18.135Z,8.19
2022-10-08T05:45:14.858Z,8.28
2022-10-08T05:46:12.495Z,8.27
2022-10-08T05:47:09.071Z,8.43
2022-10-08T05:48:05.624Z,8.47
2022-10-08T05:49:04.302Z,8.45
2022-10-08T05:50:00.970Z,8.71
2022-10-08T05:50:57.681Z,8.88
2022-10-08T05:51:54.296Z,8.81
2022-10-08T05:52:50.916Z,8.84
2022-10-08T05:53:50.269Z,8.94
2022-10-08T05:54:46.845Z,8.91
2022-10-08T05:55:43.386Z,8.84
2022-10-08T05:56:39.970Z,8.93
2022-10-08T05:57:36.530Z,8.96
2022-10-08T05:58:35.088Z,9.02
2022-10-08T05:59:31.718Z,9.02
2022-10-08T06:00:28.313Z,9.17
2022-10-08T06:01:31.286Z,9.31
2022-10-08T06:02:27.906Z,9.40
2022-10-08T06:03:24.648Z,9.44
2022-10-08T06:04:21.399Z,9.70
2022-10-08T06:05:18.027Z,9.75
2022-10-08T06:06:14.678Z,9.78
2022-10-08T06:07:11.324Z,9.87
2022-10-08T06:08:07.861Z,9.92
2022-10-08T06:09:06.021Z,9.78
2022-10-08T06:10:02.576Z,9.44
2022-10-08T06:10:59.725Z,9.61
2022-10-08T06:11:56.412Z,9.72
2022-10-08T06:12:53.008Z,9.57
2022-10-08T06:13:53.221Z,9.44
2022-10-08T06:14:50.011Z,9.70
2022-10-08T06:15:59.813Z,9.81
2022-10-08T06:16:56.477Z,9.87
2022-10-08T06:17:53.057Z,9.88
2022-10-08T06:18:49.869Z,9.86
2022-10-08T06:19:46.432Z,10.04
2022-10-08T06:20:43.018Z,10.12
2022-10-08T06:21:39.621Z,10.24
2022-10-08T06:22:36.183Z,10.19
2022-10-08T06:23:33.069Z,10.25
2022-10-08T06:24:29.731Z,10.52
2022-10-08T06:25:26.318Z,10.29
2022-10-08T06:26:26.225Z,10.38
2022-10-08T06:27:22.816Z,10.46
2022-10-08T06:28:19.415Z,10.48
2022-10-08T06:29:18.252Z,10.44
2022-10-08T06:30:15.115Z,10.54
2022-10-08T06:31:13.219Z,10.61
2022-10-08T06:32:09.832Z,10.63
2022-10-08T06:33:06.459Z,10.53
2022-10-08T06:34:04.651Z,10.60
2022-10-08T06:35:01.437Z,10.78
2022-10-08T06:36:03.765Z,10.76
2022-10-08T06:37:00.427Z,10.71
2022-10-08T06:37:56.972Z,10.86
2022-10-08T06:38:59.520Z,10.90
2022-10-08T06:39:55.972Z,10.86
2022-10-08T06:40:52.526Z,11.03
2022-10-08T06:41:49.099Z,11.14
2022-10-08T06:42:45.972Z,11.18
2022-10-08T06:43:43.013Z,11.10
2022-10-08T06:44:39.580Z,10.92
2022-10-08T06:45:39.999Z,10.87
2022-10-08T06:46:36.866Z,11.04
2022-10-08T06:47:33.612Z,11.34
2022-10-08T06:48:30.391Z,11.35
2022-10-08T06:49:27.232Z,11.32
2022-10-08T06:50:23.783Z,11.22
2022-10-08T06:51:20.406Z,10.94
2022-10-08T06:52:16.955Z,10.82
2022-10-08T06:53:13.622Z,11.16
2022-10-08T06:54:10.337Z,11.25
2022-10-08T06:55:07.282Z,11.47
2022-10-08T06:56:06.734Z,11.60
2022-10-08T06:57:03.333Z,11.78
2022-10-08T06:58:01.197Z,11.85
2022-10-08T06:58:58.023Z,11.76
2022-10-08T06:59:54.654Z,11.75
2022-10-08T07:01:07.775Z,11.69
2022-10-08T07:02:04.604Z,11.87
2022-10-08T07:03:01.467Z,12.04
2022-10-08T07:04:02.139Z,11.99
2022-10-08T07:04:58.778Z,12.12
2022-10-08T07:05:55.502Z,12.22
2022-10-08T07:06:52.071Z,12.24
2022-10-08T07:07:48.679Z,12.11
2022-10-08T07:08:45.861Z,11.81
2022-10-08T07:09:42.534Z,11.99
2022-10-08T07:10:39.090Z,11.99
2022-10-08T07:11:35.951Z,11.85
2022-10-08T07:12:32.918Z,11.72
2022-10-08T07:13:29.579Z,11.64
2022-10-08T07:14:26.138Z,11.70
2022-10-08T07:15:22.718Z,11.71
2022-10-08T07:16:21.753Z,11.74
2022-10-08T07:17:18.438Z,11.84
2022-10-08T07:18:16.148Z,11.85
2022-10-08T07:19:13.264Z,12.12
2022-10-08T07:20:10.043Z,11.95
2022-10-08T07:21:08.121Z,12.10
2022-10-08T07:22:04.674Z,12.19
2022-10-08T07:23:01.296Z,12.28
2022-10-08T07:24:00.700Z,12.37
2022-10-08T07:24:57.257Z,12.44
2022-10-08T07:26:04.577Z,12.48
2022-10-08T07:27:01.145Z,12.46
2022-10-08T07:27:57.693Z,12.38
2022-10-08T07:28:57.080Z,12.71
2022-10-08T07:29:53.631Z,12.53
2022-10-08T07:30:50.186Z,12.34
2022-10-08T07:31:46.779Z,12.48
2022-10-08T07:32:43.418Z,12.56
2022-10-08T07:33:40.884Z,12.80
2022-10-08T07:34:37.479Z,12.84
2022-10-08T07:35:34.023Z,12.88
2022-10-08T07:36:30.617Z,12.99
2022-10-08T07:37:27.200Z,12.92
2022-10-08T07:38:23.866Z,13.15
2022-10-08T07:39:20.508Z,13.19
2022-10-08T07:40:19.788Z,12.91
2022-10-08T07:41:16.392Z,13.02
2022-10-08T07:42:12.927Z,12.83
2022-10-08T07:43:09.648Z,13.00
2022-10-08T07:44:06.732Z,13.07
2022-10-08T07:45:03.832Z,13.18
2022-10-08T07:46:00.454Z,13.20
2022-10-08T07:46:57.046Z,12.92
2022-10-08T07:47:53.754Z,13.13
2022-10-08T07:48:51.030Z,13.32
2022-10-08T07:49:47.630Z,13.64
2022-10-08T07:50:44.229Z,13.49
2022-10-08T07:51:41.749Z,13.31
2022-10-08T07:52:38.366Z,13.29
2022-10-08T07:53:35.666Z,13.58
2022-10-08T07:54:32.320Z,13.68
2022-10-08T07:55:29.334Z,13.73
2022-10-08T07:56:26.107Z,13.87
2022-10-08T07:57:22.682Z,13.53
2022-10-08T07:58:19.298Z,13.68
2022-10-08T07:59:16.196Z,13.86
2022-10-08T08:00:13.245Z,13.79
2022-10-08T08:01:14.843Z,13.87
2022-10-08T08:02:11.528Z,13.90
2022-10-08T08:03:13.301Z,13.58
2022-10-08T08:04:11.561Z,13.60
2022-10-08T08:05:08.489Z,13.98
2022-10-08T08:06:13.434Z,14.23
2022-10-08T08:07:10.112Z,14.09
2022-10-08T08:08:06.703Z,14.08
2022-10-08T08:09:03.691Z,13.94
2022-10-08T08:10:00.253Z,13.82
2022-10-08T08:11:01.429Z,13.80
2022-10-08T08:11:58.045Z,14.18
2022-10-08T08:12:54.619Z,13.83
2022-10-08T08:13:52.320Z,13.58
2022-10-08T08:14:48.860Z,14.05
2022-10-08T08:15:45.444Z,14.04
2022-10-08T08:16:42.113Z,14.36
2022-10-08T08:17:39.011Z,14.40
2022-10-08T08:18:40.419Z,14.33
2022-10-08T08:19:40.262Z,14.81
2022-10-08T08:20:37.191Z,14.57
2022-10-08T08:21:38.568Z,14.35
2022-10-08T08:22:35.149Z,14.28
2022-10-08T08:23:37.156Z,14.35
2022-10-08T08:24:33.818Z,14.33
2022-10-08T08:25:30.377Z,14.72
2022-10-08T08:26:30.045Z,14.89
2022-10-08T08:27:26.911Z,14.93
2022-10-08T08:28:23.967Z,14.96
2022-10-08T08:29:20.596Z,15.12
2022-10-08T08:30:19.722Z,15.30
2022-10-08T08:31:24.222Z,15.27
2022-10-08T08:32:26.127Z,15.39
2022-10-08T08:33:24.862Z,15.58
2022-10-08T08:34:23.421Z,15.52
2022-10-08T08:35:20.002Z,15.30
2022-10-08T08:36:18.545Z,15.33
2022-10-08T08:37:15.255Z,15.31
2022-10-08T08:38:11.835Z,15.32
2022-10-08T08:39:13.943Z,15.19
2022-10-08T08:40:10.951Z,14.97
2022-10-08T08:41:33.920Z,14.96
2022-10-08T08:42:43.473Z,14.88
2022-10-08T08:43:40.127Z,15.23
2022-10-08T08:44:40.756Z,15.52
2022-10-08T08:45:53.366Z,15.79
2022-10-08T08:47:14.005Z,15.44
2022-10-08T08:48:24.213Z,15.49
2022-10-08T08:50:02.413Z,16.00
2022-10-08T08:50:59.649Z,16.36
2022-10-08T08:51:59.212Z,16.01
2022-10-08T08:52:56.733Z,16.13
2022-10-08T08:53:54.222Z,15.97
2022-10-08T08:54:53.353Z,15.71
2022-10-08T08:55:54.281Z,15.53
2022-10-08T08:56:52.671Z,15.73
2022-10-08T08:57:57.202Z,15.86
2022-10-08T08:59:14.421Z,16.06
2022-10-08T09:00:20.643Z,15.66
2022-10-08T09:01:44.607Z,15.48
2022-10-08T09:02:52.354Z,15.19
2022-10-08T09:03:54.921Z,15.93
2022-10-08T09:04:54.737Z,15.86
2022-10-08T09:05:56.699Z,15.86
2022-10-08T09:06:54.422Z,15.77
2022-10-08T09:07:59.593Z,15.91
2022-10-08T09:09:01.201Z,16.04
2022-10-08T09:09:59.250Z,16.17
2022-10-08T09:11:02.800Z,16.24
2022-10-08T09:12:00.200Z,16.17
2022-10-08T09:12:57.967Z,16.48
2022-10-08T09:14:09.720Z,16.73
2022-10-08T09:15:18.004Z,16.30
2022-10-08T09:16:16.438Z,16.60
2022-10-08T09:17:17.255Z,16.47
2022-10-08T09:18:16.216Z,16.78
2022-10-08T09:19:12.841Z,16.89
2022-10-08T09:20:15.729Z,17.06
2022-10-08T09:21:12.383Z,16.60
2022-10-08T09:22:23.284Z,16.30
2022-10-08T09:23:22.596Z,16.73
2022-10-08T09:24:19.565Z,17.18
2022-10-08T09:25:25.194Z,16.61
2022-10-08T09:26:24.355Z,16.30
2022-10-08T09:27:21.029Z,16.57
2022-10-08T09:28:40.743Z,16.47
2022-10-08T09:29:37.614Z,16.22
2022-10-08T09:30:43.206Z,16.39
2022-10-08T09:31:39.934Z,16.60
2022-10-08T09:32:39.048Z,16.26
2022-10-08T09:33:35.655Z,16.79
2022-10-08T09:34:32.386Z,16.71
2022-10-08T09:35:31.921Z,16.98
2022-10-08T09:36:36.056Z,17.01
2022-10-08T09:37:32.729Z,16.96
2022-10-08T09:38:37.352Z,16.91
2022-10-08T09:39:37.497Z,16.92
2022-10-08T09:40:34.135Z,16.93
2022-10-08T09:41:30.908Z,17.26
2022-10-08T09:42:27.576Z,17.61
2022-10-08T09:43:24.766Z,17.74
2022-10-08T09:44:22.767Z,17.77
2022-10-08T09:45:34.021Z,17.54
2022-10-08T09:46:33.309Z,17.42
2022-10-08T09:47:33.469Z,17.15
2022-10-08T09:48:30.988Z,17.10
2022-10-08T09:49:31.370Z,17.29
2022-10-08T09:50:28.061Z,17.51
2022-10-08T09:51:24.661Z,18.11
2022-10-08T09:52:27.030Z,17.83
2022-10-08T09:53:27.262Z,17.66
2022-10-08T09:54:28.185Z,17.78
2022-10-08T09:55:35.224Z,17.15
2022-10-08T09:56:31.919Z,16.40
2022-10-08T09:57:30.189Z,16.94
2022-10-08T09:58:30.228Z,17.64
2022-10-08T09:59:36.030Z,17.81
2022-10-08T10:00:38.405Z,17.59
2022-10-08T10:01:35.056Z,17.61
2022-10-08T10:02:34.994Z,17.39
2022-10-08T10:03:32.832Z,17.77
2022-10-08T10:04:37.584Z,17.65
2022-10-08T10:05:36.164Z,17.92
2022-10-08T10:06:35.167Z,18.21
2022-10-08T10:07:41.819Z,18.54
2022-10-08T10:08:46.756Z,18.35
2022-10-08T10:09:56.488Z,18.07
2022-10-08T10:10:54.522Z,18.24
2022-10-08T10:11:56.540Z,17.48
2022-10-08T10:13:01.535Z,17.51
2022-10-08T10:14:02.865Z,18.27
2022-10-08T10:15:10.914Z,18.70
2022-10-08T10:16:23.449Z,18.79
2022-10-08T10:17:43.538Z,18.17
2022-10-08T10:18:51.641Z,17.85
2022-10-08T10:19:59.521Z,18.28
2022-10-08T10:21:19.182Z,18.51
2022-10-08T10:22:24.887Z,18.49
2022-10-08T10:23:29.055Z,17.58
2022-10-08T10:24:42.675Z,17.78
2022-10-08T10:25:39.224Z,17.62
2022-10-08T10:26:38.852Z,17.98
2022-10-08T10:27:42.262Z,18.06
2022-10-08T10:28:51.009Z,18.17
2022-10-08T10:30:17.469Z,18.32
2022-10-08T10:31:27.939Z,18.34
2022-10-08T10:32:32.294Z,18.01
2022-10-08T10:33:34.113Z,17.83
2022-10-08T10:34:35.227Z,18.46
2022-10-08T10:35:32.834Z,18.71
2022-10-08T10:36:36.919Z,18.92
2022-10-08T10:37:45.131Z,18.68
2022-10-08T10:38:50.350Z,18.38
2022-10-08T10:40:18.741Z,18.42
2022-10-08T10:42:01.818Z,18.71
2022-10-08T10:43:10.903Z,18.83
2022-10-08T10:44:13.215Z,19.09
2022-10-08T10:45:26.510Z,19.26
2022-10-08T10:46:41.373Z,19.37
2022-10-08T10:47:37.958Z,19.12
2022-10-08T10:48:34.649Z,19.40
2022-10-08T10:49:38.440Z,19.29
2022-10-08T10:50:42.769Z,19.35
2022-10-08T10:51:42.013Z,19.61
2022-10-08T10:52:47.505Z,19.49
2022-10-08T10:53:56.160Z,19.17
2022-10-08T10:55:05.275Z,18.87
2022-10-08T10:56:04.888Z,17.92
2022-10-08T10:57:09.041Z,18.49
2022-10-08T10:58:14.287Z,19.24
2022-10-08T10:59:38.671Z,19.40
2022-10-08T11:01:02.644Z,19.32
2022-10-08T11:02:27.048Z,19.68
2022-10-08T11:04:03.053Z,19.65
2022-10-08T11:05:14.858Z,20.09
2022-10-08T11:06:53.262Z,19.64
2022-10-08T11:08:10.126Z,19.47
2022-10-08T11:09:30.966Z,19.58
2022-10-08T11:10:39.754Z,19.21
2022-10-08T11:11:56.915Z,19.57
2022-10-08T11:13:41.411Z,19.74
2022-10-08T11:15:22.160Z,19.61
2022-10-08T11:16:36.287Z,20.07
2022-10-08T11:17:32.853Z,19.93
2022-10-08T11:18:53.012Z,19.51
2022-10-08T11:20:00.059Z,19.78
2022-10-08T11:21:30.658Z,20.38
2022-10-08T11:22:53.897Z,19.61
2022-10-08T11:24:12.309Z,19.83
2022-10-08T11:25:17.860Z,19.65
2022-10-08T11:26:38.967Z,19.72
2022-10-08T11:27:41.265Z,20.11
2022-10-08T11:28:46.716Z,20.48
2022-10-08T11:30:04.973Z,20.17
2022-10-08T11:31:20.364Z,19.69
2022-10-08T11:32:19.194Z,19.63
2022-10-08T11:33:17.393Z,19.34
2022-10-08T11:34:32.112Z,19.67
2022-10-08T11:35:35.776Z,20.33
2022-10-08T11:36:52.701Z,20.33
2022-10-08T11:38:08.660Z,20.60
2022-10-08T11:39:17.157Z,20.54
2022-10-08T11:40:32.591Z,19.89
2022-10-08T11:41:45.455Z,20.27
2022-10-08T11:43:02.418Z,20.50
2022-10-08T11:44:01.682Z,20.14
2022-10-08T11:45:22.908Z,20.09
2022-10-08T11:46:31.770Z,20.01
2022-10-08T11:47:41.678Z,19.99
2022-10-08T11:48:38.408Z,20.09
2022-10-08T11:49:38.093Z,19.79
2022-10-08T11:50:36.703Z,19.56
2022-10-08T11:51:37.363Z,19.87
2022-10-08T11:52:34.711Z,19.85
2022-10-08T11:53:31.410Z,20.04
2022-10-08T11:54:34.817Z,19.85
2022-10-08T11:55:33.489Z,19.86
2022-10-08T11:56:31.589Z,19.20
2022-10-08T11:58:05.989Z,18.98
2022-10-08T11:58:56.587Z,19.53
2022-10-08T11:59:53.147Z,19.58
2022-10-08T12:00:53.726Z,19.80
2022-10-08T12:02:02.606Z,19.70
2022-10-08T12:03:00.221Z,19.56
2022-10-08T12:04:09.851Z,19.80
2022-10-08T12:05:21.738Z,20.23
2022-10-08T12:06:32.925Z,20.00
2022-10-08T12:07:36.591Z,20.07
2022-10-08T12:08:54.570Z,19.86
2022-10-08T12:10:03.319Z,19.69
2022-10-08T12:11:31.859Z,19.43
2022-10-08T12:12:50.771Z,19.67
2022-10-08T12:14:16.943Z,20.16
2022-10-08T12:15:27.569Z,20.43
2022-10-08T12:16:56.172Z,19.71
2022-10-08T12:18:25.866Z,20.03
2022-10-08T12:19:35.267Z,19.77
2022-10-08T12:20:34.036Z,19.69
2022-10-08T12:21:30.636Z,20.10
2022-10-08T12:22:27.168Z,19.97
2022-10-08T12:23:23.736Z,20.35
2022-10-08T12:24:40.503Z,20.26
2022-10-08T12:25:41.750Z,20.28
2022-10-08T12:27:16.373Z,20.47
2022-10-08T12:28:35.379Z,20.38
2022-10-08T12:30:12.110Z,20.73
2022-10-08T12:31:39.957Z,20.93
2022-10-08T12:32:39.482Z,20.81
2022-10-08T12:33:36.610Z,20.81
2022-10-08T12:34:33.235Z,20.43
2022-10-08T12:35:59.000Z,20.73
2022-10-08T12:37:06.068Z,21.15
2022-10-08T12:38:17.527Z,20.64
2022-10-08T12:39:35.144Z,20.96
2022-10-08T12:40:41.234Z,21.15
2022-10-08T12:41:46.373Z,21.08
2022-10-08T12:42:43.698Z,20.98
2022-10-08T12:43:51.637Z,21.06
2022-10-08T12:45:11.803Z,21.20
2022-10-08T12:46:27.186Z,21.35
2022-10-08T12:47:42.086Z,20.66
2022-10-08T12:48:51.576Z,20.40
2022-10-08T12:50:05.791Z,20.45
2022-10-08T12:51:12.732Z,20.78
2022-10-08T12:52:13.233Z,20.74
2022-10-08T12:53:13.908Z,21.07
2022-10-08T12:54:25.340Z,21.30
2022-10-08T12:55:23.388Z,21.03
2022-10-08T12:56:28.076Z,20.65
2022-10-08T12:57:30.360Z,20.56
2022-10-08T12:58:31.746Z,20.45
2022-10-08T12:59:32.191Z,20.40
2022-10-08T13:00:33.058Z,20.48
2022-10-08T13:01:30.318Z,20.76
2022-10-08T13:02:42.126Z,20.65
2022-10-08T13:03:38.701Z,20.22
2022-10-08T13:04:35.721Z,20.52
2022-10-08T13:05:40.384Z,20.39
2022-10-08T13:06:37.145Z,20.74
2022-10-08T13:07:35.859Z,20.97
2022-10-08T13:08:35.168Z,20.87
2022-10-08T13:09:35.875Z,20.75
2022-10-08T13:10:32.486Z,20.66
2022-10-08T13:11:29.223Z,20.66
2022-10-08T13:12:26.020Z,20.26
2022-10-08T13:13:39.664Z,20.23
2022-10-08T13:14:39.462Z,20.02
2022-10-08T13:15:36.154Z,20.28
2022-10-08T13:16:46.500Z,20.57
2022-10-08T13:17:43.022Z,20.60
2022-10-08T13:18:42.481Z,20.16
2022-10-08T13:19:40.594Z,20.46
2022-10-08T13:20:37.204Z,20.72
2022-10-08T13:21:37.213Z,21.04
2022-10-08T13:22:33.841Z,21.22
2022-10-08T13:23:43.343Z,20.91
2022-10-08T13:24:42.909Z,20.71
2022-10-08T13:25:43.128Z,20.61
2022-10-08T13:26:50.609Z,20.37
2022-10-08T13:28:36.191Z,20.51